createdAt,value
2018-06-21T00:00:12.243Z,12.30
2018-06-21T00:02:40.605Z,11.80
2018-06-21T00:05:08.957Z,10.63
2018-06-21T00:07:37.322Z,11.57
2018-06-21T00:10:06.442Z,11.37
2018-06-21T00:12:34.804Z,12.50
2018-06-21T00:15:03.206Z,12.10
2018-06-21T00:17:31.605Z,12.37
2018-06-21T00:19:59.961Z,12.33
2018-06-21T00:22:29.388Z,12.00
2018-06-21T00:24:57.737Z,12.50
2018-06-21T00:27:26.102Z,11.37
2018-06-21T00:29:54.470Z,12.47
2018-06-21T00:32:22.830Z,10.93
2018-06-21T00:34:51.204Z,12.27
2018-06-21T00:37:19.570Z,11.07
2018-06-21T00:39:47.924Z,11.97
2018-06-21T00:42:16.277Z,13.03
2018-06-21T00:44:44.671Z,13.57
2018-06-21T00:47:13.033Z,12.80
2018-06-21T00:49:41.397Z,12.60
2018-06-21T00:52:10.198Z,11.57
2018-06-21T00:54:38.549Z,15.17
2018-06-21T00:57:07.925Z,12.93
2018-06-21T00:59:37.162Z,14.13
2018-06-21T01:02:05.543Z,12.37
2018-06-21T01:04:33.883Z,12.97
2018-06-21T01:07:02.247Z,13.70
2018-06-21T01:09:30.665Z,12.70
2018-06-21T01:11:59.018Z,14.07
2018-06-21T01:14:27.384Z,14.20
2018-06-21T01:16:55.924Z,14.83
2018-06-21T01:19:24.386Z,14.00
2018-06-21T01:21:52.793Z,13.70
2018-06-21T01:24:23.080Z,16.03
2018-06-21T01:26:52.380Z,13.50
2018-06-21T01:29:21.722Z,13.50
2018-06-21T01:31:50.085Z,13.67
2018-06-21T01:34:19.318Z,14.13
2018-06-21T01:36:47.671Z,14.37
2018-06-21T01:39:16.027Z,14.10
2018-06-21T01:41:44.391Z,13.73
2018-06-21T01:44:12.757Z,14.97
2018-06-21T01:46:41.114Z,13.90
2018-06-21T01:49:10.466Z,15.40
2018-06-21T01:51:39.498Z,13.83
2018-06-21T01:54:08.690Z,14.43
2018-06-21T01:56:38.148Z,14.70
2018-06-21T01:59:06.575Z,15.40
2018-06-21T02:01:34.927Z,14.10
2018-06-21T02:04:03.300Z,15.00
2018-06-21T02:06:32.671Z,13.73
2018-06-21T02:09:02.043Z,13.73
2018-06-21T02:11:31.501Z,14.63
2018-06-21T02:14:00.827Z,14.80
2018-06-21T02:16:30.119Z,14.17
2018-06-21T02:18:59.393Z,13.97
2018-06-21T02:21:28.679Z,15.30
2018-06-21T02:23:57.885Z,14.47
2018-06-21T02:26:27.291Z,15.10
2018-06-21T02:28:56.531Z,12.83
2018-06-21T02:31:24.895Z,14.13
2018-06-21T02:33:53.287Z,14.00
2018-06-21T02:36:22.640Z,14.50
2018-06-21T02:38:51.923Z,13.70
2018-06-21T02:41:21.315Z,14.33
2018-06-21T02:43:50.763Z,12.20
2018-06-21T02:46:20.204Z,14.50
2018-06-21T02:48:49.512Z,13.40
2018-06-21T02:51:18.903Z,13.70
2018-06-21T02:53:48.194Z,14.20
2018-06-21T02:56:17.464Z,14.43
2018-06-21T02:58:46.834Z,14.83
2018-06-21T03:01:16.092Z,15.20
2018-06-21T03:03:45.363Z,12.60
2018-06-21T03:06:14.698Z,13.03
2018-06-21T03:08:43.974Z,14.30
2018-06-21T03:11:13.221Z,13.57
2018-06-21T03:13:42.492Z,13.57
2018-06-21T03:16:10.895Z,12.17
2018-06-21T03:18:40.175Z,14.93
2018-06-21T03:21:08.559Z,13.63
2018-06-21T03:23:36.951Z,13.30
2018-06-21T03:26:05.416Z,15.10
2018-06-21T03:28:34.738Z,15.17
2018-06-21T03:31:04.104Z,14.30
2018-06-21T03:33:32.502Z,13.53
2018-06-21T03:36:00.860Z,13.43
2018-06-21T03:38:29.222Z,13.63
2018-06-21T03:40:57.574Z,14.70
2018-06-21T03:43:25.922Z,14.17
2018-06-21T03:45:54.294Z,14.97
2018-06-21T03:48:22.684Z,15.93
2018-06-21T03:50:51.038Z,14.80
2018-06-21T03:53:20.415Z,16.30
2018-06-21T03:55:48.842Z,15.97
2018-06-21T03:58:18.199Z,15.17
2018-06-21T04:00:46.564Z,14.80
2018-06-21T04:03:14.939Z,14.50
2018-06-21T04:05:43.334Z,14.83
2018-06-21T04:08:12.690Z,13.73
2018-06-21T04:10:41.159Z,13.70
2018-06-21T04:13:10.447Z,13.93
2018-06-21T04:15:38.813Z,14.17
2018-06-21T04:18:07.216Z,14.20
2018-06-21T04:20:35.881Z,15.10
2018-06-21T04:23:04.242Z,14.70
2018-06-21T04:25:33.392Z,15.70
2018-06-21T04:28:02.837Z,14.07
2018-06-21T04:30:31.203Z,15.60
2018-06-21T04:32:59.545Z,13.33
2018-06-21T04:35:28.772Z,14.73
2018-06-21T04:37:57.167Z,13.90
2018-06-21T04:40:25.529Z,13.20
2018-06-21T04:42:54.973Z,14.40
2018-06-21T04:45:24.349Z,14.20
2018-06-21T04:47:52.712Z,14.30
2018-06-21T04:50:21.071Z,14.20
2018-06-21T04:52:49.462Z,16.13
2018-06-21T04:55:17.889Z,14.40
2018-06-21T04:57:47.125Z,14.27
2018-06-21T05:00:15.518Z,14.10
2018-06-21T05:02:43.885Z,13.43
2018-06-21T05:05:12.274Z,12.70
2018-06-21T05:07:40.667Z,15.03
2018-06-21T05:10:10.021Z,11.17
2018-06-21T05:12:39.402Z,11.87
2018-06-21T05:15:07.803Z,11.13
2018-06-21T05:17:36.210Z,11.63
2018-06-21T05:20:04.646Z,11.60
2018-06-21T05:22:33.018Z,10.90
2018-06-21T05:25:01.393Z,11.77
2018-06-21T05:27:30.718Z,10.60
2018-06-21T05:29:59.962Z,12.30
2018-06-21T05:32:28.318Z,12.00
2018-06-21T05:34:57.452Z,9.47
2018-06-21T05:37:26.290Z,9.77
2018-06-21T05:39:55.707Z,9.73
2018-06-21T05:42:24.118Z,10.17
2018-06-21T05:44:53.344Z,9.20
2018-06-21T05:47:21.726Z,9.13
2018-06-21T05:49:51.024Z,10.37
2018-06-21T05:52:19.371Z,8.50
2018-06-21T05:54:48.677Z,10.60
2018-06-21T05:57:17.092Z,11.00
2018-06-21T05:59:45.518Z,10.53
2018-06-21T06:02:13.881Z,9.90
2018-06-21T06:04:43.309Z,11.23
2018-06-21T06:07:11.678Z,13.57
2018-06-21T06:09:41.077Z,13.80
2018-06-21T06:12:09.483Z,13.90
2018-06-21T06:14:38.739Z,13.13
2018-06-21T06:17:07.140Z,12.53
2018-06-21T06:19:35.555Z,14.00
2018-06-21T06:22:04.978Z,14.17
2018-06-21T06:24:33.387Z,13.60
2018-06-21T06:27:03.247Z,15.67
2018-06-21T06:29:31.679Z,15.27
2018-06-21T06:32:01.011Z,16.43
2018-06-21T06:34:29.445Z,17.33
2018-06-21T06:36:58.831Z,13.70
2018-06-21T06:39:27.199Z,14.80
2018-06-21T06:41:56.594Z,14.10
2018-06-21T06:44:25.766Z,15.50
2018-06-21T06:46:55.242Z,14.00
2018-06-21T06:49:24.587Z,13.50
2018-06-21T06:51:52.950Z,13.70
2018-06-21T06:54:22.266Z,12.23
2018-06-21T06:56:50.648Z,11.30
2018-06-21T06:59:19.017Z,12.00
2018-06-21T07:01:47.372Z,10.60
2018-06-21T07:04:15.785Z,10.93
2018-06-21T07:06:44.219Z,8.47
2018-06-21T07:09:12.588Z,9.20
2018-06-21T07:11:40.971Z,9.33
2018-06-21T07:14:09.396Z,8.87
2018-06-21T07:16:37.753Z,9.60
2018-06-21T07:19:06.511Z,8.47
2018-06-21T07:21:37.966Z,9.70
2018-06-21T07:24:06.526Z,10.13
2018-06-21T07:26:34.962Z,9.07
2018-06-21T07:29:03.318Z,8.00
2018-06-21T07:31:31.667Z,8.63
2018-06-21T07:34:00.041Z,8.50
2018-06-21T07:36:28.477Z,9.00
2018-06-21T07:38:56.956Z,7.93
2018-06-21T07:41:25.430Z,8.83
2018-06-21T07:43:53.797Z,8.40
2018-06-21T07:46:22.179Z,7.20
2018-06-21T07:48:51.577Z,8.30
2018-06-21T07:51:19.933Z,7.60
2018-06-21T07:53:48.366Z,9.00
2018-06-21T07:56:16.719Z,7.80
2018-06-21T07:58:45.064Z,9.93
2018-06-21T08:01:13.444Z,11.17
2018-06-21T08:03:41.800Z,7.67
2018-06-21T08:06:10.155Z,7.60
2018-06-21T08:08:38.521Z,8.40
2018-06-21T08:11:06.902Z,8.37
2018-06-21T08:13:35.266Z,7.33
2018-06-21T08:16:04.134Z,6.93
2018-06-21T08:18:33.429Z,7.00
2018-06-21T08:21:02.695Z,7.93
2018-06-21T08:23:31.966Z,8.07
2018-06-21T08:26:00.325Z,7.63
2018-06-21T08:28:28.685Z,7.83
2018-06-21T08:30:57.103Z,7.93
2018-06-21T08:33:25.489Z,7.40
2018-06-21T08:35:53.879Z,8.00
2018-06-21T08:38:22.311Z,5.73
2018-06-21T08:40:50.675Z,7.10
2018-06-21T08:43:19.053Z,7.47
2018-06-21T08:45:47.457Z,6.60
2018-06-21T08:48:15.802Z,7.20
2018-06-21T08:50:44.155Z,7.20
2018-06-21T08:53:12.511Z,6.87
2018-06-21T08:55:40.892Z,6.90
2018-06-21T08:58:09.251Z,7.17
2018-06-21T09:00:37.626Z,6.80
2018-06-21T09:03:05.985Z,6.50
2018-06-21T09:05:35.269Z,6.70
2018-06-21T09:08:04.538Z,7.03
2018-06-21T09:10:33.907Z,6.07
2018-06-21T09:13:03.100Z,5.80
2018-06-21T09:15:32.407Z,6.50
2018-06-21T09:18:00.761Z,6.30
2018-06-21T09:20:30.011Z,6.10
2018-06-21T09:22:59.171Z,5.80
2018-06-21T09:25:28.521Z,5.80
2018-06-21T09:27:57.747Z,5.37
2018-06-21T09:30:26.094Z,6.20
2018-06-21T09:32:54.456Z,4.97
2018-06-21T09:35:23.868Z,4.73
2018-06-21T09:38:59.197Z,6.00
2018-06-21T09:41:33.042Z,4.33
2018-06-21T09:44:06.681Z,4.77
2018-06-21T09:46:40.353Z,5.07
2018-06-21T09:49:09.734Z,4.90
2018-06-21T09:51:38.129Z,5.10
2018-06-21T09:54:06.494Z,4.60
2018-06-21T09:56:34.841Z,4.70
2018-06-21T09:59:03.260Z,5.10
2018-06-21T10:01:31.599Z,4.97
2018-06-21T10:03:59.947Z,5.70
2018-06-21T10:06:29.212Z,4.50
2018-06-21T10:08:57.636Z,5.13
2018-06-21T10:11:26.989Z,4.67
2018-06-21T10:13:55.355Z,4.20
2018-06-21T10:16:24.538Z,4.07
2018-06-21T10:18:52.895Z,3.90
2018-06-21T10:21:22.145Z,4.00
2018-06-21T10:23:50.502Z,3.60
2018-06-21T10:26:18.852Z,4.33
2018-06-21T10:28:47.200Z,4.07
2018-06-21T10:31:15.856Z,4.30
2018-06-21T10:33:46.931Z,3.93
2018-06-21T10:36:16.303Z,3.40
2018-06-21T10:38:44.677Z,3.20
2018-06-21T10:41:13.083Z,3.07
2018-06-21T10:43:41.439Z,3.80
2018-06-21T10:46:09.843Z,4.17
2018-06-21T10:48:38.247Z,3.80
2018-06-21T10:51:07.550Z,3.83
2018-06-21T10:53:35.915Z,3.47
2018-06-21T10:56:04.297Z,4.10
2018-06-21T10:58:33.249Z,4.23
2018-06-21T11:01:01.860Z,3.40
2018-06-21T11:03:30.216Z,3.87
2018-06-21T11:05:58.617Z,3.63
2018-06-21T11:08:26.993Z,3.40
2018-06-21T11:10:55.377Z,11.87
2018-06-21T11:13:24.645Z,14.20
2018-06-21T11:15:53.972Z,10.33
2018-06-21T11:18:23.185Z,7.53
2018-06-21T11:20:52.484Z,5.70
2018-06-21T11:23:20.872Z,4.90
2018-06-21T11:25:49.235Z,4.73
2018-06-21T11:28:17.613Z,4.27
2018-06-21T11:30:46.043Z,4.20
2018-06-21T11:33:15.296Z,2.10
2018-06-21T11:35:44.754Z,1.60
2018-06-21T11:38:14.218Z,1.90
2018-06-21T11:40:43.497Z,1.70
2018-06-21T11:43:12.954Z,1.53
2018-06-21T11:45:42.235Z,1.57
2018-06-21T11:48:11.550Z,1.30
2018-06-21T11:50:40.937Z,1.50
2018-06-21T11:53:09.376Z,1.80
2018-06-21T11:55:37.788Z,1.30
2018-06-21T11:58:06.162Z,1.90
2018-06-21T12:00:35.432Z,1.20
2018-06-21T12:03:04.817Z,1.50
2018-06-21T12:05:34.083Z,1.13
2018-06-21T12:08:03.362Z,1.30
2018-06-21T12:10:32.788Z,1.13
2018-06-21T12:13:02.065Z,0.90
2018-06-21T12:15:31.501Z,1.53
2018-06-21T12:17:59.869Z,0.80
2018-06-21T12:20:28.221Z,1.23
2018-06-21T12:22:56.584Z,1.00
2018-06-21T12:25:26.441Z,1.20
2018-06-21T12:27:55.771Z,1.00
2018-06-21T12:30:25.034Z,1.00
2018-06-21T12:32:54.424Z,0.80
2018-06-21T12:35:23.718Z,0.80
2018-06-21T12:37:53.079Z,0.97
2018-06-21T12:40:22.439Z,0.80
2018-06-21T12:42:51.635Z,1.00
2018-06-21T12:45:20.933Z,1.00
2018-06-21T12:47:50.349Z,0.80
2018-06-21T12:50:19.604Z,0.80
2018-06-21T12:52:48.909Z,1.00
2018-06-21T12:55:17.278Z,1.00
2018-06-21T12:57:45.640Z,1.07
2018-06-21T13:00:14.011Z,1.00
2018-06-21T13:02:42.375Z,0.70
2018-06-21T13:05:10.764Z,1.00
2018-06-21T13:07:39.157Z,1.13
2018-06-21T13:10:18.768Z,1.30
2018-06-21T13:13:03.847Z,1.80
2018-06-21T13:15:32.265Z,1.93
2018-06-21T13:18:01.641Z,1.63
2018-06-21T13:20:30.907Z,2.37
2018-06-21T13:22:59.255Z,2.33
2018-06-21T13:25:28.631Z,1.97
2018-06-21T13:27:57.908Z,2.30
2018-06-21T13:30:27.153Z,2.17
2018-06-21T13:32:55.509Z,1.83
2018-06-21T13:35:24.787Z,1.50
2018-06-21T13:37:53.251Z,1.63
2018-06-21T13:40:21.617Z,1.53
2018-06-21T13:42:50.894Z,1.70
2018-06-21T13:45:20.250Z,1.07
2018-06-21T13:47:48.615Z,1.60
2018-06-21T13:50:17.869Z,1.40
2018-06-21T13:52:46.234Z,1.33
2018-06-21T13:55:14.607Z,1.80
2018-06-21T13:57:43.914Z,1.30
2018-06-21T14:00:12.271Z,1.57
2018-06-21T14:02:40.683Z,1.60
2018-06-21T14:05:09.062Z,1.30
2018-06-21T14:07:38.457Z,1.70
2018-06-21T14:10:07.668Z,1.40
2018-06-21T14:12:36.932Z,1.50
2018-06-21T14:15:06.156Z,1.53
2018-06-21T14:17:35.546Z,1.73
2018-06-21T14:20:03.969Z,1.90
2018-06-21T14:22:32.330Z,2.23
2018-06-21T14:25:00.704Z,2.50
2018-06-21T14:27:29.070Z,1.83
2018-06-21T14:29:57.483Z,2.30
2018-06-21T14:32:26.820Z,2.03
2018-06-21T14:34:55.169Z,1.47
2018-06-21T14:37:23.551Z,1.87
2018-06-21T14:39:52.928Z,2.00
2018-06-21T14:42:22.166Z,1.70
2018-06-21T14:44:50.537Z,1.63
2018-06-21T14:47:19.783Z,1.50
2018-06-21T14:49:48.163Z,1.20
2018-06-21T14:52:17.630Z,1.97
2018-06-21T14:54:46.012Z,1.80
2018-06-21T14:57:15.456Z,1.37
2018-06-21T14:59:43.918Z,1.07
2018-06-21T15:02:13.195Z,1.90
2018-06-21T15:04:41.569Z,1.40
2018-06-21T15:07:09.963Z,1.23
2018-06-21T15:09:39.358Z,1.80
2018-06-21T15:12:07.712Z,1.43
2018-06-21T15:14:37.140Z,1.50
2018-06-21T15:17:05.519Z,1.10
2018-06-21T15:19:34.919Z,1.83
2018-06-21T15:22:03.315Z,1.40
2018-06-21T15:24:31.698Z,1.23
2018-06-21T15:27:00.975Z,1.10
2018-06-21T15:29:30.233Z,1.03
2018-06-21T15:31:59.433Z,1.23
2018-06-21T15:34:28.697Z,1.20
2018-06-21T15:36:57.081Z,1.10
2018-06-21T15:39:25.591Z,1.30
2018-06-21T15:41:54.007Z,2.70
2018-06-21T15:44:23.362Z,1.20
2018-06-21T15:46:52.773Z,1.03
2018-06-21T15:49:22.012Z,1.67
2018-06-21T15:51:50.413Z,1.00
2018-06-21T15:54:19.788Z,1.77
2018-06-21T15:56:48.189Z,1.10
2018-06-21T15:59:16.925Z,1.30
2018-06-21T16:01:45.297Z,1.10
2018-06-21T16:04:13.679Z,1.17
2018-06-21T16:06:42.067Z,1.10
2018-06-21T16:09:11.089Z,1.07
2018-06-21T16:11:39.985Z,1.00
2018-06-21T16:14:08.374Z,1.00
2018-06-21T16:16:36.834Z,1.00
2018-06-21T16:19:05.323Z,1.07
2018-06-21T16:21:33.731Z,1.10
2018-06-21T16:24:02.187Z,0.97
2018-06-21T16:26:30.563Z,0.90
2018-06-21T16:28:59.111Z,1.23
2018-06-21T16:31:27.465Z,1.40
2018-06-21T16:33:56.737Z,1.10
2018-06-21T16:36:25.156Z,1.00
2018-06-21T16:38:53.522Z,1.10
2018-06-21T16:41:21.886Z,1.10
2018-06-21T16:43:50.304Z,1.13
2018-06-21T16:46:18.715Z,0.80
2018-06-21T16:48:47.453Z,1.10
2018-06-21T16:51:16.873Z,1.10
2018-06-21T16:53:45.244Z,1.23
2018-06-21T16:56:13.641Z,1.03
2018-06-21T16:58:42.056Z,1.00
2018-06-21T17:01:10.490Z,1.00
2018-06-21T17:03:38.874Z,1.30
2018-06-21T17:06:07.256Z,1.07
2018-06-21T17:08:36.664Z,1.27
2018-06-21T17:11:05.144Z,1.53
2018-06-21T17:13:33.697Z,1.07
2018-06-21T17:16:02.179Z,1.40
2018-06-21T17:18:30.606Z,1.10
2018-06-21T17:20:58.971Z,0.90
2018-06-21T17:23:27.353Z,1.07
2018-06-21T17:25:55.714Z,0.90
2018-06-21T17:28:24.096Z,0.90
2018-06-21T17:30:52.467Z,1.20
2018-06-21T17:33:20.848Z,2.70
2018-06-21T17:35:49.223Z,1.50
2018-06-21T17:38:18.646Z,1.30
2018-06-21T17:40:47.057Z,0.70
2018-06-21T17:43:15.564Z,0.83
2018-06-21T17:45:44.031Z,0.80
2018-06-21T17:48:12.533Z,0.90
2018-06-21T17:50:42.119Z,0.73
2018-06-21T17:53:11.692Z,1.00
2018-06-21T17:55:41.038Z,1.33
2018-06-21T17:58:10.402Z,1.10
2018-06-21T18:00:38.769Z,1.90
2018-06-21T18:03:07.137Z,0.67
2018-06-21T18:05:35.519Z,1.13
2018-06-21T18:08:04.325Z,1.10
2018-06-21T18:10:32.657Z,0.97
2018-06-21T18:13:01.039Z,1.07
2018-06-21T18:15:29.444Z,1.00
2018-06-21T18:17:58.713Z,0.80
2018-06-21T18:20:27.110Z,1.00
2018-06-21T18:22:55.495Z,1.20
2018-06-21T18:25:24.770Z,1.20
2018-06-21T18:27:54.263Z,1.77
2018-06-21T18:30:23.670Z,1.00
2018-06-21T18:32:52.043Z,1.10
2018-06-21T18:35:21.494Z,1.10
2018-06-21T18:37:50.983Z,1.07
2018-06-21T18:40:19.363Z,0.77
2018-06-21T18:42:47.722Z,2.40
2018-06-21T18:45:17.132Z,1.07
2018-06-21T18:47:45.524Z,0.70
2018-06-21T18:50:13.997Z,0.77
2018-06-21T18:52:43.600Z,1.00
2018-06-21T18:55:12.010Z,1.17
2018-06-21T18:57:40.452Z,0.90
2018-06-21T19:00:10.102Z,0.90
2018-06-21T19:02:39.995Z,0.90
2018-06-21T19:05:08.470Z,0.80
2018-06-21T19:07:40.693Z,0.80
2018-06-21T19:10:14.446Z,1.00
2018-06-21T19:12:42.822Z,0.90
2018-06-21T19:15:11.222Z,0.93
2018-06-21T19:17:39.696Z,1.27
2018-06-21T19:20:08.066Z,1.00
2018-06-21T19:22:36.607Z,0.90
2018-06-21T19:25:04.986Z,1.10
2018-06-21T19:27:34.310Z,0.80
2018-06-21T19:30:02.760Z,1.07
2018-06-21T19:32:31.967Z,0.90
2018-06-21T19:35:01.238Z,0.80
2018-06-21T19:37:29.675Z,0.80
2018-06-21T19:39:59.083Z,0.60
2018-06-21T19:42:27.475Z,0.93
2018-06-21T19:44:55.844Z,0.90
2018-06-21T19:47:24.211Z,0.83
2018-06-21T19:49:52.570Z,0.80
2018-06-21T19:52:20.950Z,0.80
2018-06-21T19:54:49.331Z,0.80
2018-06-21T19:57:17.718Z,0.80
2018-06-21T19:59:46.135Z,0.90
2018-06-21T20:02:14.512Z,0.80
2018-06-21T20:04:42.898Z,0.70
2018-06-21T20:07:12.261Z,0.80
2018-06-21T20:09:41.523Z,0.80
2018-06-21T20:12:09.895Z,0.83
2018-06-21T20:14:38.266Z,0.73
2018-06-21T20:17:06.644Z,0.70
2018-06-21T20:19:40.378Z,1.00
2018-06-21T20:22:08.745Z,0.70
2018-06-21T20:24:37.091Z,0.70
2018-06-21T20:27:06.469Z,0.90
2018-06-21T20:29:34.857Z,0.87
2018-06-21T20:32:03.231Z,0.80
2018-06-21T20:34:31.637Z,1.10
2018-06-21T20:37:00.235Z,0.80
2018-06-21T20:39:28.681Z,0.80
2018-06-21T20:41:57.117Z,0.90
2018-06-21T20:44:25.486Z,1.03
2018-06-21T20:46:53.906Z,1.07
2018-06-21T20:49:22.466Z,0.70
2018-06-21T20:51:50.837Z,1.00
2018-06-21T20:54:19.784Z,0.80
2018-06-21T20:56:49.416Z,0.80
2018-06-21T20:59:17.888Z,1.03
2018-06-21T21:01:46.441Z,0.83
2018-06-21T21:04:15.418Z,0.70
2018-06-21T21:06:43.882Z,1.10
2018-06-21T21:09:13.876Z,0.80
2018-06-21T21:11:43.173Z,1.53
2018-06-21T21:14:12.442Z,0.80
2018-06-21T21:16:41.981Z,0.90
2018-06-21T21:19:10.313Z,0.93
2018-06-21T21:21:38.707Z,0.80
2018-06-21T21:24:07.117Z,1.10
2018-06-21T21:26:35.554Z,1.40
2018-06-21T21:29:04.916Z,0.80
2018-06-21T21:31:34.369Z,0.80
2018-06-21T21:34:04.866Z,0.90
2018-06-21T21:36:34.312Z,0.97
2018-06-21T21:39:03.964Z,1.10
2018-06-21T21:41:33.405Z,0.87
2018-06-21T21:44:02.828Z,1.30
2018-06-21T21:46:32.253Z,0.80
2018-06-21T21:49:00.689Z,1.07
2018-06-21T21:51:29.135Z,1.13
2018-06-21T21:53:57.532Z,0.97
2018-06-21T21:56:27.371Z,1.10
2018-06-21T21:58:55.800Z,1.00
2018-06-21T22:01:25.109Z,1.00
2018-06-21T22:03:53.496Z,0.97
2018-06-21T22:06:21.947Z,0.90
2018-06-21T22:08:50.348Z,1.00
2018-06-21T22:11:18.768Z,1.57
2018-06-21T22:13:47.268Z,1.40
2018-06-21T22:16:16.653Z,1.10
2018-06-21T22:18:45.101Z,1.07
2018-06-21T22:21:13.555Z,0.90
2018-06-21T22:23:41.951Z,1.13
2018-06-21T22:26:16.915Z,1.30
2018-06-21T22:28:45.330Z,1.00
2018-06-21T22:31:15.878Z,1.03
2018-06-21T22:33:44.285Z,1.20
2018-06-21T22:36:12.786Z,0.93
2018-06-21T22:38:41.194Z,1.00
2018-06-21T22:41:10.562Z,0.90
2018-06-21T22:43:39.316Z,0.80
2018-06-21T22:46:08.157Z,0.80
2018-06-21T22:48:37.081Z,1.17
2018-06-21T22:51:05.509Z,1.40
2018-06-21T22:53:33.946Z,1.00
2018-06-21T22:56:02.317Z,0.90
2018-06-21T22:58:30.771Z,0.90
2018-06-21T23:00:59.246Z,1.10
2018-06-21T23:03:27.681Z,1.00
2018-06-21T23:05:57.162Z,1.00
2018-06-21T23:08:25.615Z,1.07
2018-06-21T23:10:54.076Z,1.00
2018-06-21T23:13:22.476Z,1.40
2018-06-21T23:15:50.902Z,1.40
2018-06-21T23:18:30.646Z,1.23
2018-06-21T23:20:59.083Z,0.90
2018-06-21T23:23:28.403Z,1.10
2018-06-21T23:25:56.770Z,1.40
2018-06-21T23:28:25.163Z,1.10
2018-06-21T23:30:54.568Z,1.80
2018-06-21T23:33:24.909Z,1.43
2018-06-21T23:35:54.369Z,1.10
2018-06-21T23:38:23.845Z,1.30
2018-06-21T23:40:52.359Z,1.10
2018-06-21T23:43:21.629Z,1.30
2018-06-21T23:45:51.104Z,1.47
2018-06-21T23:48:19.559Z,1.23
2018-06-21T23:50:49.764Z,1.30
2018-06-21T23:53:19.197Z,1.50
2018-06-21T23:55:48.460Z,1.20
2018-06-21T23:58:16.848Z,1.30
